createdAt,value
2019-02-23T00:02:27.798Z,-0.52
2019-02-23T00:04:56.336Z,-0.48
2019-02-23T00:07:24.882Z,-0.45
2019-02-23T00:09:53.380Z,-0.40
2019-02-23T00:12:21.923Z,-0.39
2019-02-23T00:14:50.463Z,-0.37
2019-02-23T00:17:19.032Z,-0.35
2019-02-23T00:19:47.570Z,-0.37
2019-02-23T00:22:16.124Z,-0.37
2019-02-23T00:24:44.702Z,-0.36
2019-02-23T00:27:13.243Z,-0.37
2019-02-23T00:29:41.783Z,-0.40
2019-02-23T00:32:10.366Z,-0.42
2019-02-23T00:34:38.905Z,-0.44
2019-02-23T00:37:07.436Z,-0.46
2019-02-23T00:39:36.038Z,-0.48
2019-02-23T00:42:04.551Z,-0.48
2019-02-23T00:44:33.088Z,-0.50
2019-02-23T00:47:02.639Z,-0.51
2019-02-23T00:49:36.353Z,-0.52
2019-02-23T00:52:01.467Z,-0.53
2019-02-23T00:54:30.040Z,-0.54
2019-02-23T00:56:58.582Z,-0.55
2019-02-23T00:59:27.129Z,-0.57
2019-02-23T01:01:55.705Z,-0.60
2019-02-23T01:04:24.248Z,-0.64
2019-02-23T01:06:52.782Z,-0.67
2019-02-23T01:09:21.360Z,-0.69
2019-02-23T01:11:49.913Z,-0.73
2019-02-23T01:14:18.452Z,-0.75
2019-02-23T01:16:47.041Z,-0.77
2019-02-23T01:19:15.649Z,-0.80
2019-02-23T01:21:44.187Z,-0.81
2019-02-23T01:24:12.819Z,-0.82
2019-02-23T01:26:41.353Z,-0.83
2019-02-23T01:29:09.903Z,-0.85
2019-02-23T01:31:38.485Z,-0.88
2019-02-23T01:34:07.035Z,-0.90
2019-02-23T01:36:35.581Z,-0.91
2019-02-23T01:39:05.601Z,-0.92
2019-02-23T01:41:34.200Z,-0.92
2019-02-23T01:44:02.746Z,-0.93
2019-02-23T01:46:31.316Z,-0.93
2019-02-23T01:49:01.746Z,-0.93
2019-02-23T01:51:30.282Z,-0.92
2019-02-23T01:53:58.881Z,-0.91
2019-02-23T01:56:27.421Z,-0.86
2019-02-23T01:58:56.054Z,-0.83
2019-02-23T02:01:24.645Z,-0.79
2019-02-23T02:03:53.186Z,-0.76
2019-02-23T02:06:21.796Z,-0.71
2019-02-23T02:08:50.384Z,-0.67
2019-02-23T02:11:18.974Z,-0.62
2019-02-23T02:13:47.521Z,-0.58
2019-02-23T02:16:16.083Z,-0.53
2019-02-23T02:18:44.551Z,-0.48
2019-02-23T02:21:13.077Z,-0.44
2019-02-23T02:23:41.652Z,-0.38
2019-02-23T02:26:10.198Z,-0.34
2019-02-23T02:28:38.746Z,-0.30
2019-02-23T02:31:07.342Z,-0.28
2019-02-23T02:33:55.727Z,-0.26
2019-02-23T02:36:24.306Z,-0.27
2019-02-23T02:38:52.772Z,-0.28
2019-02-23T02:41:21.299Z,-0.32
2019-02-23T02:43:49.877Z,-0.35
2019-02-23T02:46:18.987Z,-0.38
2019-02-23T02:48:47.527Z,-0.41
2019-02-23T02:51:17.179Z,-0.45
2019-02-23T02:53:45.718Z,-0.48
2019-02-23T02:56:14.264Z,-0.51
2019-02-23T02:58:42.848Z,-0.55
2019-02-23T03:01:11.391Z,-0.59
2019-02-23T03:03:39.955Z,-0.64
2019-02-23T03:06:08.537Z,-0.66
2019-02-23T03:08:37.075Z,-0.69
2019-02-23T03:11:05.614Z,-0.71
2019-02-23T03:13:34.185Z,-0.75
2019-02-23T03:16:02.729Z,-0.77
2019-02-23T03:18:31.264Z,-0.78
2019-02-23T03:20:59.834Z,-0.80
2019-02-23T03:23:28.393Z,-0.82
2019-02-23T03:25:56.936Z,-0.84
2019-02-23T03:28:25.584Z,-0.87
2019-02-23T03:30:54.133Z,-0.89
2019-02-23T03:33:22.668Z,-0.90
2019-02-23T03:35:51.253Z,-0.92
2019-02-23T03:38:19.806Z,-0.94
2019-02-23T03:40:48.371Z,-0.95
2019-02-23T03:43:16.961Z,-0.98
2019-02-23T03:45:45.502Z,-1.02
2019-02-23T03:48:14.098Z,-1.05
2019-02-23T03:50:49.119Z,-1.07
2019-02-23T03:53:13.189Z,-1.10
2019-02-23T03:55:41.803Z,-1.11
2019-02-23T03:58:10.558Z,-1.13
2019-02-23T04:00:39.096Z,-1.14
2019-02-23T04:03:07.638Z,-1.15
2019-02-23T04:05:36.223Z,-1.16
2019-02-23T04:08:04.774Z,-1.18
2019-02-23T04:10:33.324Z,-1.18
2019-02-23T04:13:01.902Z,-1.18
2019-02-23T04:15:30.458Z,-1.19
2019-02-23T04:17:58.993Z,-1.18
2019-02-23T04:20:27.573Z,-1.19
2019-02-23T04:22:56.122Z,-1.20
2019-02-23T04:25:24.675Z,-1.21
2019-02-23T04:27:53.239Z,-1.23
2019-02-23T04:30:21.793Z,-1.22
2019-02-23T04:32:50.337Z,-1.21
2019-02-23T04:35:18.908Z,-1.19
2019-02-23T04:37:47.450Z,-1.17
2019-02-23T04:40:16.011Z,-1.14
2019-02-23T04:42:44.634Z,-1.12
2019-02-23T04:45:13.170Z,-1.07
2019-02-23T04:47:41.705Z,-1.03
2019-02-23T04:50:11.106Z,-1.00
2019-02-23T04:52:39.765Z,-0.97
2019-02-23T04:55:09.464Z,-0.92
2019-02-23T04:57:38.101Z,-0.88
2019-02-23T05:00:12.194Z,-0.83
2019-02-23T05:02:40.715Z,-0.78
2019-02-23T05:05:09.680Z,-0.72
2019-02-23T05:07:38.231Z,-0.67
2019-02-23T05:10:08.416Z,-0.65
2019-02-23T05:12:36.998Z,-0.61
2019-02-23T05:15:07.696Z,-0.58
2019-02-23T05:17:36.149Z,-0.54
2019-02-23T05:20:05.689Z,-0.51
2019-02-23T05:22:34.168Z,-0.46
2019-02-23T05:25:02.711Z,-0.40
2019-02-23T05:27:31.360Z,-0.37
2019-02-23T05:29:59.934Z,-0.36
2019-02-23T05:32:28.452Z,-0.34
2019-02-23T05:34:56.957Z,-0.32
2019-02-23T05:37:25.420Z,-0.31
2019-02-23T05:39:53.879Z,-0.29
2019-02-23T05:42:22.359Z,-0.26
2019-02-23T05:44:50.818Z,-0.23
2019-02-23T05:47:19.283Z,-0.20
2019-02-23T05:49:47.857Z,-0.16
2019-02-23T05:52:16.327Z,-0.15
2019-02-23T05:54:44.798Z,-0.12
2019-02-23T05:57:15.118Z,-0.10
2019-02-23T05:59:44.086Z,-0.09
2019-02-23T06:02:13.113Z,-0.08
2019-02-23T06:04:41.604Z,-0.10
2019-02-23T06:07:10.070Z,-0.10
2019-02-23T06:09:38.528Z,-0.11
2019-02-23T06:12:07.188Z,-0.10
2019-02-23T06:14:35.653Z,-0.09
2019-02-23T06:17:04.356Z,-0.06
2019-02-23T06:19:32.976Z,-0.05
2019-02-23T06:22:01.415Z,-0.03
2019-02-23T06:24:29.884Z,-0.03
2019-02-23T06:26:58.468Z,-0.04
2019-02-23T06:29:27.007Z,-0.09
2019-02-23T06:31:55.568Z,-0.13
2019-02-23T06:34:24.136Z,-0.15
2019-02-23T06:36:52.706Z,-0.19
2019-02-23T06:39:21.320Z,-0.27
2019-02-23T06:41:49.806Z,-0.30
2019-02-23T06:44:18.418Z,-0.33
2019-02-23T06:46:46.965Z,-0.36
2019-02-23T06:49:15.563Z,-0.39
2019-02-23T06:51:44.099Z,-0.40
2019-02-23T06:54:12.697Z,-0.41
2019-02-23T06:56:41.786Z,-0.43
2019-02-23T06:59:11.344Z,-0.44
2019-02-23T07:01:39.981Z,-0.44
2019-02-23T07:04:08.546Z,-0.44
2019-02-23T07:06:37.082Z,-0.44
2019-02-23T07:09:06.127Z,-0.41
2019-02-23T07:11:34.860Z,-0.38
2019-02-23T07:14:03.401Z,-0.34
2019-02-23T07:16:31.971Z,-0.30
2019-02-23T07:19:00.554Z,-0.25
2019-02-23T07:21:29.012Z,-0.21
2019-02-23T07:23:57.550Z,-0.17
2019-02-23T07:26:26.146Z,-0.14
2019-02-23T07:28:54.607Z,-0.09
2019-02-23T07:31:23.163Z,-0.05
2019-02-23T07:33:51.729Z,0.01
2019-02-23T07:36:20.309Z,0.05
2019-02-23T07:38:48.785Z,0.12
2019-02-23T07:41:17.269Z,0.15
2019-02-23T07:43:45.732Z,0.11
2019-02-23T07:46:14.179Z,0.23
2019-02-23T07:48:42.688Z,0.27
2019-02-23T07:51:11.155Z,0.31
2019-02-23T07:53:39.626Z,0.35
2019-02-23T07:56:08.183Z,0.43
2019-02-23T07:58:36.635Z,0.46
2019-02-23T08:01:05.281Z,0.51
2019-02-23T08:03:33.788Z,0.56
2019-02-23T08:06:02.248Z,0.60
2019-02-23T08:08:30.719Z,0.65
2019-02-23T08:10:59.190Z,0.69
2019-02-23T08:13:27.638Z,0.73
2019-02-23T08:15:56.105Z,0.80
2019-02-23T08:18:24.601Z,0.86
2019-02-23T08:20:53.063Z,0.92
2019-02-23T08:23:21.512Z,0.97
2019-02-23T08:25:50.014Z,0.99
2019-02-23T08:28:18.487Z,1.03
2019-02-23T08:30:47.071Z,1.07
2019-02-23T08:33:15.504Z,1.11
2019-02-23T08:35:43.954Z,1.14
2019-02-23T08:38:12.400Z,1.16
2019-02-23T08:40:40.925Z,1.18
2019-02-23T08:43:09.381Z,1.21
2019-02-23T08:45:37.848Z,1.26
2019-02-23T08:48:06.369Z,1.32
2019-02-23T08:50:34.829Z,1.38
2019-02-23T08:53:03.282Z,1.46
2019-02-23T08:55:31.770Z,1.50
2019-02-23T08:58:00.249Z,1.56
2019-02-23T09:00:28.707Z,1.59
2019-02-23T09:02:57.486Z,1.63
2019-02-23T09:05:25.942Z,1.66
2019-02-23T09:07:54.404Z,1.70
2019-02-23T09:10:22.904Z,1.77
2019-02-23T09:12:51.402Z,1.81
2019-02-23T09:15:22.177Z,1.85
2019-02-23T09:17:50.088Z,1.88
2019-02-23T09:20:28.611Z,1.90
2019-02-23T09:22:59.485Z,1.97
2019-02-23T09:25:18.944Z,2.02
2019-02-23T09:27:47.394Z,2.10
2019-02-23T09:30:15.918Z,2.18
2019-02-23T09:32:44.422Z,2.23
2019-02-23T09:35:14.302Z,2.28
2019-02-23T09:37:43.030Z,2.35
2019-02-23T09:40:16.686Z,2.43
2019-02-23T09:42:46.711Z,2.51
2019-02-23T09:45:15.164Z,2.58
2019-02-23T09:47:43.727Z,2.65
2019-02-23T09:50:12.202Z,2.73
2019-02-23T09:52:40.666Z,2.80
2019-02-23T09:55:09.856Z,2.87
2019-02-23T09:57:38.302Z,2.92
2019-02-23T10:00:09.662Z,2.98
2019-02-23T10:02:38.230Z,3.03
2019-02-23T10:05:07.570Z,3.10
2019-02-23T10:07:36.093Z,3.13
2019-02-23T10:10:07.078Z,3.17
2019-02-23T10:12:35.529Z,3.19
2019-02-23T10:15:05.325Z,3.24
2019-02-23T10:17:33.816Z,3.31
2019-02-23T10:20:02.282Z,3.38
2019-02-23T10:22:30.746Z,3.44
2019-02-23T10:24:59.242Z,3.51
2019-02-23T10:27:27.691Z,3.54
2019-02-23T10:29:57.814Z,3.56
2019-02-23T10:32:26.320Z,3.62
2019-02-23T10:34:54.802Z,3.62
2019-02-23T10:37:23.273Z,3.71
2019-02-23T10:39:51.780Z,3.80
2019-02-23T10:42:20.243Z,3.80
2019-02-23T10:44:48.694Z,3.81
2019-02-23T10:47:17.197Z,3.83
2019-02-23T10:49:45.658Z,3.87
2019-02-23T10:52:14.109Z,3.94
2019-02-23T10:54:42.597Z,3.94
2019-02-23T10:57:11.082Z,3.97
2019-02-23T10:59:39.546Z,4.00
2019-02-23T11:02:09.164Z,4.00
2019-02-23T11:04:37.628Z,4.10
2019-02-23T11:07:06.285Z,4.10
2019-02-23T11:09:36.548Z,4.13
2019-02-23T11:12:05.136Z,4.20
2019-02-23T11:14:33.589Z,4.22
2019-02-23T11:17:02.098Z,4.40
2019-02-23T11:19:30.626Z,4.45
2019-02-23T11:21:59.064Z,4.52
2019-02-23T11:24:27.566Z,4.55
2019-02-23T11:26:56.028Z,4.61
2019-02-23T11:29:24.612Z,4.61
2019-02-23T11:31:53.256Z,4.85
2019-02-23T11:34:21.743Z,4.85
2019-02-23T11:36:50.220Z,4.94
2019-02-23T11:39:18.745Z,4.96
2019-02-23T11:41:47.209Z,5.12
2019-02-23T11:44:15.749Z,5.22
2019-02-23T11:46:59.336Z,5.36
2019-02-23T11:49:14.448Z,5.51
2019-02-23T11:51:42.890Z,5.64
2019-02-23T11:54:11.620Z,5.80
2019-02-23T11:56:40.084Z,5.92
2019-02-23T11:59:08.556Z,5.99
2019-02-23T12:01:37.061Z,6.03
2019-02-23T12:04:05.583Z,6.03
2019-02-23T12:06:34.050Z,6.05
2019-02-23T12:09:03.295Z,6.08
2019-02-23T12:11:31.911Z,6.11
2019-02-23T12:14:00.351Z,6.12
2019-02-23T12:16:28.834Z,6.14
2019-02-23T12:18:57.289Z,6.17
2019-02-23T12:21:25.751Z,6.21
2019-02-23T12:23:54.231Z,6.24
2019-02-23T12:26:22.695Z,6.24
2019-02-23T12:28:51.146Z,6.21
2019-02-23T12:31:19.700Z,6.19
2019-02-23T12:33:48.149Z,6.16
2019-02-23T12:36:16.609Z,6.14
2019-02-23T12:38:45.103Z,6.10
2019-02-23T12:41:13.620Z,6.06
2019-02-23T12:43:42.069Z,6.09
2019-02-23T12:46:10.570Z,6.11
2019-02-23T12:48:39.024Z,6.11
2019-02-23T12:51:07.483Z,6.11
2019-02-23T12:53:35.964Z,6.09
2019-02-23T12:56:04.496Z,6.03
2019-02-23T12:58:32.948Z,5.99
2019-02-23T13:01:01.455Z,5.99
2019-02-23T13:03:29.925Z,6.00
2019-02-23T13:05:58.364Z,6.03
2019-02-23T13:08:30.021Z,6.03
2019-02-23T13:10:59.488Z,6.00
2019-02-23T13:13:43.199Z,6.01
2019-02-23T13:16:20.659Z,6.02
2019-02-23T13:18:55.133Z,6.03
2019-02-23T13:21:35.368Z,6.08
2019-02-23T13:24:28.491Z,6.12
2019-02-23T13:27:11.566Z,6.16
2019-02-23T13:29:55.488Z,6.16
2019-02-23T13:32:38.923Z,6.14
2019-02-23T13:35:33.262Z,6.12
2019-02-23T13:38:16.488Z,6.08
2019-02-23T13:41:03.128Z,6.08
2019-02-23T13:43:55.509Z,6.04
2019-02-23T13:46:48.018Z,6.02
2019-02-23T13:49:28.065Z,6.02
2019-02-23T13:52:02.665Z,6.05
2019-02-23T13:55:00.908Z,6.08
2019-02-23T13:57:44.400Z,6.08
2019-02-23T14:00:27.799Z,6.11
2019-02-23T14:03:11.240Z,6.14
2019-02-23T14:06:10.961Z,6.20
2019-02-23T14:08:48.823Z,6.25
2019-02-23T14:11:35.297Z,6.28
2019-02-23T14:14:12.954Z,6.33
2019-02-23T14:16:47.149Z,6.33
2019-02-23T14:19:18.838Z,6.35
2019-02-23T14:22:08.464Z,6.33
2019-02-23T14:24:50.127Z,6.33
2019-02-23T14:27:33.799Z,6.33
2019-02-23T14:30:14.496Z,6.33
2019-02-23T14:32:54.951Z,6.34
2019-02-23T14:35:32.394Z,6.33
2019-02-23T14:38:35.216Z,6.30
2019-02-23T14:41:18.861Z,6.27
2019-02-23T14:44:02.466Z,6.26
2019-02-23T14:46:53.597Z,6.23
2019-02-23T14:49:41.487Z,6.22
2019-02-23T14:52:25.104Z,5.66
2019-02-23T14:55:05.665Z,6.18
2019-02-23T14:57:37.329Z,6.18
2019-02-23T15:00:11.712Z,6.17
2019-02-23T15:02:43.411Z,6.18
2019-02-23T15:05:20.287Z,6.20
2019-02-23T15:08:13.068Z,6.22
2019-02-23T15:11:07.351Z,6.23
2019-02-23T15:13:39.032Z,6.22
2019-02-23T15:16:17.248Z,6.19
2019-02-23T15:18:55.361Z,6.16
2019-02-23T15:21:32.657Z,6.13
2019-02-23T15:24:19.469Z,6.11
2019-02-23T15:27:15.009Z,6.08
2019-02-23T15:30:09.496Z,6.02
2019-02-23T15:32:49.321Z,5.82
2019-02-23T15:35:26.733Z,5.93
2019-02-23T15:38:20.860Z,5.88
2019-02-23T15:41:04.642Z,5.85
2019-02-23T15:43:48.343Z,5.79
2019-02-23T15:46:36.556Z,5.75
2019-02-23T15:49:11.127Z,5.71
2019-02-23T15:51:39.608Z,5.66
2019-02-23T15:54:08.149Z,5.62
2019-02-23T15:56:36.623Z,5.56
2019-02-23T15:59:05.082Z,5.51
2019-02-23T16:01:33.570Z,5.47
2019-02-23T16:04:02.039Z,5.43
2019-02-23T16:06:31.588Z,5.36
2019-02-23T16:09:00.365Z,5.29
2019-02-23T16:11:28.812Z,5.25
2019-02-23T16:13:57.277Z,5.18
2019-02-23T16:16:25.836Z,5.13
2019-02-23T16:18:56.270Z,4.99
2019-02-23T16:21:24.742Z,4.99
2019-02-23T16:23:53.237Z,4.86
2019-02-23T16:26:21.692Z,4.83
2019-02-23T16:28:50.143Z,4.83
2019-02-23T16:31:18.631Z,4.77
2019-02-23T16:33:47.073Z,4.66
2019-02-23T16:36:15.580Z,4.66
2019-02-23T16:38:44.064Z,4.54
2019-02-23T16:41:12.524Z,4.54
2019-02-23T16:43:40.999Z,4.42
2019-02-23T16:46:09.481Z,4.42
2019-02-23T16:48:37.945Z,4.34
2019-02-23T16:51:06.403Z,4.21
2019-02-23T16:53:34.898Z,4.21
2019-02-23T16:56:03.352Z,4.21
2019-02-23T16:58:31.809Z,4.13
2019-02-23T17:01:00.310Z,4.13
2019-02-23T17:03:28.769Z,4.05
2019-02-23T17:05:57.233Z,4.01
2019-02-23T17:08:25.711Z,4.01
2019-02-23T17:10:54.172Z,3.94
2019-02-23T17:13:22.643Z,3.90
2019-02-23T17:15:51.137Z,3.86
2019-02-23T17:18:19.660Z,3.82
2019-02-23T17:20:48.257Z,3.79
2019-02-23T17:23:16.764Z,3.73
2019-02-23T17:25:45.266Z,3.73
2019-02-23T17:28:13.716Z,3.70
2019-02-23T17:30:42.198Z,3.59
2019-02-23T17:33:10.666Z,3.64
2019-02-23T17:35:39.166Z,3.60
2019-02-23T17:38:16.114Z,3.57
2019-02-23T17:40:37.873Z,3.38
2019-02-23T17:43:06.326Z,3.48
2019-02-23T17:45:35.491Z,3.43
2019-02-23T17:48:04.034Z,3.40
2019-02-23T17:50:32.494Z,3.37
2019-02-23T17:53:00.995Z,3.37
2019-02-23T17:55:29.444Z,3.35
2019-02-23T17:57:57.901Z,3.33
2019-02-23T18:00:26.414Z,3.30
2019-02-23T18:02:54.846Z,3.28
2019-02-23T18:05:23.323Z,3.25
2019-02-23T18:07:51.830Z,3.22
2019-02-23T18:10:20.304Z,3.19
2019-02-23T18:12:48.772Z,3.16
2019-02-23T18:15:17.286Z,3.14
2019-02-23T18:17:45.754Z,3.10
2019-02-23T18:20:14.572Z,3.07
2019-02-23T18:22:43.308Z,3.02
2019-02-23T18:25:11.850Z,2.98
2019-02-23T18:27:40.325Z,2.93
2019-02-23T18:30:13.744Z,2.91
2019-02-23T18:32:40.740Z,2.88
2019-02-23T18:35:09.583Z,2.85
2019-02-23T18:37:38.091Z,2.82
2019-02-23T18:40:08.197Z,2.79
2019-02-23T18:42:36.666Z,2.76
2019-02-23T18:45:07.200Z,2.73
2019-02-23T18:47:35.651Z,2.68
2019-02-23T18:50:05.345Z,2.64
2019-02-23T18:52:33.847Z,2.60
2019-02-23T18:55:03.634Z,2.56
2019-02-23T18:57:32.329Z,2.51
2019-02-23T19:00:00.881Z,2.44
2019-02-23T19:02:29.360Z,2.37
2019-02-23T19:04:57.819Z,2.31
2019-02-23T19:07:26.309Z,2.24
2019-02-23T19:09:54.898Z,2.19
2019-02-23T19:12:23.362Z,2.13
2019-02-23T19:14:51.872Z,2.10
2019-02-23T19:17:20.332Z,2.02
2019-02-23T19:19:48.889Z,1.97
2019-02-23T19:22:17.384Z,1.92
2019-02-23T19:24:46.946Z,1.88
2019-02-23T19:27:15.408Z,1.86
2019-02-23T19:29:43.924Z,1.82
2019-02-23T19:32:12.396Z,1.80
2019-02-23T19:34:40.858Z,1.78
2019-02-23T19:37:09.338Z,1.75
2019-02-23T19:39:37.801Z,1.71
2019-02-23T19:42:06.258Z,1.67
2019-02-23T19:44:34.749Z,1.63
2019-02-23T19:47:03.439Z,1.61
2019-02-23T19:49:31.904Z,1.57
2019-02-23T19:52:00.407Z,1.55
2019-02-23T19:54:28.866Z,1.52
2019-02-23T19:56:57.321Z,1.52
2019-02-23T19:59:25.816Z,1.50
2019-02-23T20:01:54.274Z,1.48
2019-02-23T20:04:22.727Z,1.45
2019-02-23T20:06:51.254Z,1.43
2019-02-23T20:09:19.712Z,1.43
2019-02-23T20:11:48.164Z,1.42
2019-02-23T20:14:16.943Z,1.40
2019-02-23T20:16:45.390Z,1.40
2019-02-23T20:19:13.865Z,1.40
2019-02-23T20:21:42.352Z,1.39
2019-02-23T20:24:10.807Z,1.41
2019-02-23T20:26:39.445Z,1.40
2019-02-23T20:29:07.937Z,1.40
2019-02-23T20:31:36.390Z,1.37
2019-02-23T20:34:04.826Z,1.36
2019-02-23T20:36:33.330Z,1.35
2019-02-23T20:39:01.787Z,1.35
2019-02-23T20:41:30.252Z,1.36
2019-02-23T20:43:58.761Z,1.38
2019-02-23T20:46:27.594Z,1.38
2019-02-23T20:48:56.045Z,1.39
2019-02-23T20:51:24.540Z,1.37
2019-02-23T20:53:52.989Z,1.38
2019-02-23T20:56:21.441Z,1.39
2019-02-23T20:58:49.950Z,1.40
2019-02-23T21:01:18.423Z,1.39
2019-02-23T21:03:46.886Z,1.39
2019-02-23T21:06:15.389Z,1.38
2019-02-23T21:08:43.923Z,1.37
2019-02-23T21:11:12.461Z,1.37
2019-02-23T21:13:40.959Z,1.35
2019-02-23T21:16:09.400Z,1.35
2019-02-23T21:18:37.852Z,1.33
2019-02-23T21:21:06.364Z,1.33
2019-02-23T21:23:34.849Z,1.32
2019-02-23T21:26:03.312Z,1.32
2019-02-23T21:28:32.101Z,1.32
2019-02-23T21:31:00.591Z,1.32
2019-02-23T21:33:29.017Z,1.31
2019-02-23T21:35:57.507Z,1.31
2019-02-23T21:38:25.959Z,1.29
2019-02-23T21:40:54.451Z,1.28
2019-02-23T21:43:22.963Z,1.27
2019-02-23T21:45:51.420Z,1.27
2019-02-23T21:48:19.867Z,1.28
2019-02-23T21:50:48.375Z,1.28
2019-02-23T21:53:16.836Z,1.27
2019-02-23T21:55:45.318Z,1.26
2019-02-23T21:58:13.823Z,1.26
2019-02-23T22:00:42.297Z,1.26
2019-02-23T22:03:10.737Z,1.27
2019-02-23T22:05:39.241Z,1.28
2019-02-23T22:08:09.341Z,1.29
2019-02-23T22:10:37.791Z,1.29
2019-02-23T22:13:09.319Z,1.29
2019-02-23T22:15:37.774Z,1.31
2019-02-23T22:18:06.237Z,1.31
2019-02-23T22:20:34.736Z,1.32
2019-02-23T22:23:03.184Z,1.32
2019-02-23T22:25:31.638Z,1.33
2019-02-23T22:28:00.154Z,1.32
2019-02-23T22:30:28.900Z,1.31
2019-02-23T22:32:57.383Z,1.31
2019-02-23T22:35:25.880Z,1.30
2019-02-23T22:37:54.343Z,1.29
2019-02-23T22:40:22.796Z,1.28
2019-02-23T22:42:51.286Z,1.27
2019-02-23T22:45:19.735Z,1.25
2019-02-23T22:47:48.191Z,1.25
2019-02-23T22:50:16.672Z,1.25
2019-02-23T22:52:45.139Z,1.24
2019-02-23T22:55:13.605Z,1.24
2019-02-23T22:57:42.083Z,1.23
2019-02-23T23:00:14.400Z,1.24
2019-02-23T23:02:42.862Z,1.23
2019-02-23T23:05:11.359Z,1.23
2019-02-23T23:07:39.805Z,1.22
2019-02-23T23:10:08.719Z,1.23
2019-02-23T23:12:37.292Z,1.21
2019-02-23T23:15:07.636Z,1.22
2019-02-23T23:17:36.118Z,1.21
2019-02-23T23:20:06.459Z,1.20
2019-02-23T23:22:34.907Z,1.20
2019-02-23T23:25:04.332Z,1.19
2019-02-23T23:27:32.831Z,1.19
2019-02-23T23:30:01.297Z,1.19
2019-02-23T23:32:29.880Z,1.18
2019-02-23T23:34:58.378Z,1.19
2019-02-23T23:37:26.848Z,1.17
2019-02-23T23:39:55.311Z,1.17
2019-02-23T23:42:23.817Z,1.16
2019-02-23T23:44:52.271Z,1.15
2019-02-23T23:47:20.733Z,1.15
2019-02-23T23:49:49.231Z,1.13
2019-02-23T23:52:17.685Z,1.14
2019-02-23T23:54:46.145Z,1.13
2019-02-23T23:57:14.623Z,1.13
2019-02-23T23:59:43.081Z,1.10
